METAR Data
IDs: Format: Raw Decoded Include TAF

Data at: 1745 UTC 25 Mar 2019

KBEA 251735Z AUTO 00000KT 10SM SCT014 BKN029 OVC033 26/19 A3012 RMK AO2 T02600191
KBEA 251715Z AUTO 17003KT 10SM BKN012 OVC033 25/19 A3012 RMK AO2 T02520193
KBEA 251655Z AUTO 00000KT 10SM SCT012 OVC033 25/19 A3012 RMK AO2 T02500194
KBEA 251635Z AUTO 11004KT 10SM BKN012 OVC029 24/20 A3013 RMK AO2 T02440197
KBEA 251615Z AUTO 00000KT 10SM BKN013 BKN021 OVC027 24/19 A3012 RMK AO2 T02400194
KBEA 251555Z AUTO 00000KT 10SM SCT013 BKN020 OVC027 24/20 A3012 RMK AO2 T02360196
KBEA 251535Z AUTO 00000KT 10SM BKN017 OVC026 24/19 A3011 RMK AO2 T02360194
KBEA 251515Z AUTO 00000KT 10SM BKN017 BKN021 OVC026 24/20 A3011 RMK AO2 T02350199
KBEA 251455Z AUTO 00000KT 10SM SCT004 OVC017 23/20 A3010 RMK AO2 T02310200
KBEA 251435Z AUTO 12003KT 10SM SCT004 BKN017 OVC021 23/20 A3008 RMK AO2 T02280200
KBEA 251415Z AUTO 00000KT 10SM SCT004 OVC019 23/20 A3008 RMK AO2 T02250198
KBEA 251355Z AUTO 00000KT 10SM SCT004 OVC019 22/20 A3007 RMK AO2 T02220199
KBEA 251335Z AUTO 14003KT 10SM OVC021 22/20 A3006 RMK AO2 T02200198
KBEA 251315Z AUTO 14004KT 5SM BR OVC023 22/20 A3006 RMK AO2 T02170195
KBEA 251255Z AUTO 13003KT 4SM BR OVC023 22/20 A3006 RMK AO2 T02160195
KBEA 251235Z AUTO 00000KT 4SM BR OVC021 22/19 A3005 RMK AO2 T02160193
KBEA 251215Z AUTO 00000KT 7SM SCT004 OVC023 22/20 A3004 RMK AO2 T02170195
KBEA 251155Z AUTO 00000KT 7SM BKN004 OVC025 22/20 A3003 RMK AO2 T02160195 10222 20215
KBEA 251135Z AUTO 00000KT 7SM SCT004 BKN009 OVC026 22/19 A3003 RMK AO2 T02150192
KBEA 251115Z AUTO 00000KT 5SM BR BKN010 BKN014 OVC024 22/19 A3003 RMK AO2 T02150193
KBEA 251055Z AUTO 15003KT 7SM BKN026 OVC038 22/19 A3003 RMK AO2 T02170194
KBEA 251035Z AUTO 14003KT 7SM SCT008 SCT028 OVC038 22/20 A3003 RMK AO2 T02170195
KBEA 251015Z AUTO 15006KT 7SM BKN008 OVC036 22/20 A3002 RMK AO2 T02170195
KBEA 250955Z AUTO 12003KT 7SM SCT008 BKN030 OVC034 22/20 A3003 RMK AO2 T02170195
KBEA 250935Z AUTO 12003KT 10SM SCT003 OVC032 22/20 A3003 RMK AO2 T02180195
KBEA 250915Z AUTO 14004KT 7SM OVC003 22/20 A3004 RMK AO2 T02200195
KBEA 250855Z AUTO 15005KT 7SM OVC003 22/20 A3003 RMK AO2 T02200196
KBEA 250835Z AUTO 15004KT 10SM OVC005 22/20 A3004 RMK AO2 T02220197
KBEA 250815Z AUTO 16005KT 10SM OVC005 22/20 A3004 RMK AO2 T02220196
KBEA 250755Z AUTO 16008KT 10SM OVC005 22/20 A3004 RMK AO2 T02220195
KBEA 250735Z AUTO 16004KT 10SM OVC005 22/20 A3005 RMK AO2 T02220196
KBEA 250715Z AUTO 16003KT 10SM OVC005 22/20 A3006 RMK AO2 T02210195
KBEA 250655Z AUTO 16004KT 10SM OVC005 22/20 A3006 RMK AO2 T02200195
KBEA 250635Z AUTO 16006KT 10SM OVC005 22/20 A3006 RMK AO2 T02200195
KBEA 250615Z AUTO 15006KT 10SM OVC005 22/20 A3006 RMK AO2 T02200195
KBEA 250555Z AUTO 15006KT 10SM OVC005 22/20 A3005 RMK AO2 T02200195 10255 20220 402910186
KBEA 250535Z AUTO 15008KT 10SM OVC007 22/20 A3005 RMK AO2 T02220195
KBEA 250515Z AUTO 15007KT 10SM OVC007 22/20 A3005 RMK AO2 T02220195
KBEA 250455Z AUTO 15009KT 10SM OVC009 23/20 A3005 RMK AO2 T02250195
KBEA 250435Z AUTO 15008KT 10SM BKN009 OVC048 23/20 A3005 RMK AO2 T02250195
KBEA 250415Z AUTO 14007KT 10SM BKN009 BKN048 22/19 A3006 RMK AO2 T02240194
KBEA 250355Z AUTO 14007KT 10SM SCT009 OVC048 23/19 A3005 RMK AO2 T02260194
KBEA 250335Z AUTO 14007KT 10SM SCT011 OVC048 23/20 A3005 RMK AO2 T02300195
KBEA 250315Z AUTO 13010KT 10SM OVC048 23/20 A3004 RMK AO2 T02310195
KBEA 250255Z AUTO 14011G14KT 10SM OVC050 23/20 A3003 RMK AO2 T02320195
KBEA 250235Z AUTO 15008KT 10SM OVC050 23/20 A3003 RMK AO2 T02320195
KBEA 250215Z AUTO 14009G15KT 10SM BKN050 23/20 A3002 RMK AO2 T02320195
KBEA 250155Z AUTO 14011KT 10SM BKN050 23/20 A3001 RMK AO2 T02340195
KBEA 250135Z AUTO 14010G16KT 10SM OVC050 24/19 A3001 RMK AO2 T02390192
KBEA 250115Z AUTO 14013G16KT 10SM OVC050 24/19 A3001 RMK AO2 T02400191
KBEA 250055Z AUTO 14010G17KT 10SM OVC050 24/19 A3001 RMK AO2 T02400190
KBEA 250035Z AUTO 14010G15KT 10SM OVC050 25/19 A3001 RMK AO2 T02450186
KBEA 250015Z AUTO 14010G18KT 10SM OVC050 25/18 A3001 RMK AO2 T02500183
KBEA 242355Z AUTO 13012G16KT 10SM OVC050 26/19 A3001 RMK AO2 T02550185 10291 20255
KBEA 242335Z AUTO 13012G18KT 10SM OVC050 26/19 A3001 RMK AO2 T02600186
KBEA 242315Z AUTO 14011G16KT 10SM SCT023 SCT030 OVC050 27/19 A3000 RMK AO2 T02650186
KBEA 242255Z AUTO 14012G17KT 10SM SCT025 SCT032 OVC050 27/19 A3000 RMK AO2 T02690189
KBEA 242235Z AUTO 13012KT 10SM SCT027 BKN050 28/19 A3000 RMK AO2 T02800190
KBEA 242215Z AUTO 12014G18KT 10SM SCT027 SCT033 BKN046 29/19 A2999 RMK AO2 T02890188
KBEA 242155Z AUTO 15010G16KT 10SM BKN029 OVC046 29/19 A3000 RMK AO2 T02880189
KBEA 242135Z AUTO 13010G14KT 10SM BKN029 BKN035 OVC047 29/19 A3000 RMK AO2 T02910190
KBEA 242115Z AUTO 12010KT 10SM SCT029 SCT039 OVC047 29/19 A3001 RMK AO2 T02850185
KBEA 242055Z AUTO 15009G16KT 10SM BKN029 BKN034 OVC049 28/19 A3001 RMK AO2 T02820188
KBEA 242035Z AUTO 15009G14KT 10SM SCT029 BKN037 BKN048 28/19 A3002 RMK AO2 T02810187
KBEA 242015Z AUTO 15011G15KT 10SM BKN028 BKN037 BKN046 29/18 A3002 RMK AO2 T02870183
KBEA 241955Z AUTO 16010G15KT 10SM BKN028 BKN035 OVC044 28/18 A3003 RMK AO2 T02800182
KBEA 241935Z AUTO 15010G16KT 10SM BKN030 BKN037 OVC044 28/18 A3003 RMK AO2 T02750184
KBEA 241915Z AUTO 16013G18KT 10SM BKN026 BKN033 OVC042 29/19 A3004 RMK AO2 T02870188
KBEA 241855Z AUTO 17013G18KT 10SM BKN026 OVC039 28/19 A3005 RMK AO2 T02760187
KBEA 241835Z AUTO 15012G17KT 10SM BKN024 BKN033 OVC043 28/19 A3005 RMK AO2 T02750188
KBEA 241815Z AUTO 17011KT 10SM SCT022 BKN033 OVC043 27/19 A3006 RMK AO2 T02720189
KBEA 241755Z AUTO 15009KT 120V180 10SM BKN022 BKN032 OVC041 27/19 A3007 RMK AO2 T02710190 10271 20186
KBEA 241735Z AUTO 16010KT 10SM BKN020 BKN025 OVC043 26/19 A3008 RMK AO2 T02610188
KBEA 241715Z AUTO 16009KT 10SM SCT020 BKN035 OVC043 26/19 A3009 RMK AO2 T02620188
KBEA 241655Z AUTO 17010KT 10SM SCT018 SCT026 OVC037 26/19 A3009 RMK AO2 T02590188
KBEA 241635Z AUTO 17010G14KT 10SM SCT016 SCT025 OVC037 26/19 A3010 RMK AO2 T02570186
KBEA 241615Z AUTO 18009KT 10SM BKN016 BKN027 OVC035 25/19 A3011 RMK AO2 T02520188
KBEA 241555Z AUTO 17008KT 10SM BKN014 OVC019 25/19 A3010 RMK AO2 T02540187
KBEA 241535Z AUTO 17007KT 10SM BKN010 OVC020 24/19 A3011 RMK AO2 T02440191
KBEA 241515Z AUTO 16006KT 10SM BKN008 OVC029 24/20 A3010 RMK AO2 T02400196
KBEA 241455Z AUTO 16007KT 10SM SCT008 BKN029 OVC044 23/19 A3010 RMK AO2 T02260194
KBEA 241435Z AUTO 13005KT 10SM SCT030 OVC044 22/20 A3009 RMK AO2 T02210195
KBEA 241415Z AUTO 13004KT 10SM SCT011 OVC044 21/19 A3008 RMK AO2 T02120190
KBEA 241355Z AUTO 12005KT 10SM SCT003 BKN011 OVC044 21/19 A3008 RMK AO2 T02060185
KBEA 241335Z AUTO 10004KT 7SM SCT007 BKN013 OVC044 20/18 A3007 RMK AO2 T02000180
KBEA 241315Z AUTO 11005KT 5SM BR BKN007 BKN015 OVC030 20/18 A3007 RMK AO2 T01970176
KBEA 241255Z AUTO 07003KT 5SM BR SCT011 BKN018 OVC042 19/17 A3007 RMK AO2 T01920172
KBEA 241235Z AUTO 08004KT 2 1/2SM BR BKN018 BKN026 OVC040 19/17 A3007 RMK AO2 T01870166
KBEA 241215Z AUTO 09004KT 5SM BR SCT018 BKN048 19/17 A3006 RMK AO2 T01880168
KBEA 241155Z AUTO 08003KT 4SM BR SCT016 SCT038 BKN048 19/17 A3006 RMK AO2 T01860165 10210 20186
KBEA 241135Z AUTO 09003KT 5SM BR BKN018 19/17 A3005 RMK AO2 T01900168
KBEA 241115Z AUTO 10004KT 7SM SCT012 SCT018 19/17 A3005 RMK AO2 T01900167
KBEA 241055Z AUTO 10004KT 10SM OVC014 19/17 A3004 RMK AO2 T01940171
KBEA 241035Z AUTO 10003KT 10SM BKN014 OVC020 19/17 A3004 RMK AO2 T01930171
KBEA 241015Z AUTO 09003KT 10SM OVC014 20/17 A3003 RMK AO2 T01950172
KBEA 240955Z AUTO 11004KT 10SM OVC014 19/17 A3003 RMK AO2 T01930171
KBEA 240935Z AUTO 12004KT 10SM OVC014 19/17 A3003 RMK AO2 T01920170
KBEA 240915Z AUTO 11005KT 10SM BKN012 19/17 A3003 RMK AO2 T01900167
KBEA 240855Z AUTO 10005KT 10SM OVC014 19/17 A3003 RMK AO2 T01920170
KBEA 240835Z AUTO 10004KT 10SM OVC014 19/17 A3004 RMK AO2 T01900168
KBEA 240815Z AUTO 09004KT 10SM OVC018 19/17 A3005 RMK AO2 T01860165
KBEA 240755Z AUTO 11005KT 10SM BKN018 19/17 A3005 RMK AO2 T01880165
KBEA 240735Z AUTO 11005KT 10SM BKN020 BKN025 19/17 A3005 RMK AO2 T01900167
KBEA 240715Z AUTO 11005KT 10SM BKN024 BKN039 19/17 A3005 RMK AO2 T01900165
KBEA 240655Z AUTO 11004KT 10SM SCT024 SCT039 19/17 A3006 RMK AO2 T01910166
KBEA 240635Z AUTO 11004KT 10SM BKN020 20/17 A3006 RMK AO2 T01970168
KBEA 240615Z AUTO 11004KT 10SM BKN020 20/17 A3007 RMK AO2 T02020171
KBEA 240555Z AUTO 14006KT 10SM OVC020 21/17 A3006 RMK AO2 T02100173 10234 20210 402670190